sensor_id;sensor_type;location;lat;lon;timestamp;P1;durP1;ratioP1;P2;durP2;ratioP2
6388;SDS011;3227;42.654;23.360;2023-04-03T00:00:39;8.20;;;4.10;;
6388;SDS011;3227;42.654;23.360;2023-04-03T00:03:06;7.40;;;3.87;;
6388;SDS011;3227;42.654;23.360;2023-04-03T00:05:33;9.47;;;3.80;;
6388;SDS011;3227;42.654;23.360;2023-04-03T00:08:00;8.40;;;4.10;;
6388;SDS011;3227;42.654;23.360;2023-04-03T00:10:29;7.77;;;4.03;;
6388;SDS011;3227;42.654;23.360;2023-04-03T00:12:56;7.73;;;4.13;;
6388;SDS011;3227;42.654;23.360;2023-04-03T00:15:24;11.30;;;4.60;;
6388;SDS011;3227;42.654;23.360;2023-04-03T00:20:37;9.20;;;3.93;;
6388;SDS011;3227;42.654;23.360;2023-04-03T00:23:04;7.03;;;3.87;;
6388;SDS011;3227;42.654;23.360;2023-04-03T00:25:31;6.73;;;3.80;;
6388;SDS011;3227;42.654;23.360;2023-04-03T00:27:59;10.47;;;4.27;;
6388;SDS011;3227;42.654;23.360;2023-04-03T00:30:28;8.03;;;4.17;;
6388;SDS011;3227;42.654;23.360;2023-04-03T00:32:55;7.13;;;4.00;;
6388;SDS011;3227;42.654;23.360;2023-04-03T00:35:23;7.13;;;3.70;;
6388;SDS011;3227;42.654;23.360;2023-04-03T00:37:50;6.53;;;3.27;;
6388;SDS011;3227;42.654;23.360;2023-04-03T00:40:18;8.77;;;3.77;;
6388;SDS011;3227;42.654;23.360;2023-04-03T00:42:46;12.63;;;3.83;;
6388;SDS011;3227;42.654;23.360;2023-04-03T00:45:25;6.83;;;3.77;;
6388;SDS011;3227;42.654;23.360;2023-04-03T00:47:56;7.10;;;3.27;;
6388;SDS011;3227;42.654;23.360;2023-04-03T00:50:25;6.43;;;3.67;;
6388;SDS011;3227;42.654;23.360;2023-04-03T00:52:52;8.90;;;3.70;;
6388;SDS011;3227;42.654;23.360;2023-04-03T00:55:20;6.13;;;3.47;;
6388;SDS011;3227;42.654;23.360;2023-04-03T00:57:47;8.37;;;3.57;;
6388;SDS011;3227;42.654;23.360;2023-04-03T01:00:16;8.30;;;3.80;;
6388;SDS011;3227;42.654;23.360;2023-04-03T01:02:48;5.70;;;3.40;;
6388;SDS011;3227;42.654;23.360;2023-04-03T01:05:16;9.23;;;3.43;;
6388;SDS011;3227;42.654;23.360;2023-04-03T01:07:44;10.00;;;3.90;;
6388;SDS011;3227;42.654;23.360;2023-04-03T01:10:12;6.20;;;3.37;;
6388;SDS011;3227;42.654;23.360;2023-04-03T01:12:42;6.83;;;3.40;;
6388;SDS011;3227;42.654;23.360;2023-04-03T01:15:12;8.13;;;3.47;;
6388;SDS011;3227;42.654;23.360;2023-04-03T01:17:42;8.20;;;3.40;;
6388;SDS011;3227;42.654;23.360;2023-04-03T01:20:23;8.03;;;4.10;;
6388;SDS011;3227;42.654;23.360;2023-04-03T01:23:11;9.77;;;3.37;;
6388;SDS011;3227;42.654;23.360;2023-04-03T01:25:49;10.47;;;3.77;;
6388;SDS011;3227;42.654;23.360;2023-04-03T01:28:18;8.07;;;3.53;;
6388;SDS011;3227;42.654;23.360;2023-04-03T01:30:47;7.27;;;3.60;;
6388;SDS011;3227;42.654;23.360;2023-04-03T01:33:21;11.00;;;3.70;;
6388;SDS011;3227;42.654;23.360;2023-04-03T01:35:47;9.70;;;3.60;;
6388;SDS011;3227;42.654;23.360;2023-04-03T01:38:14;8.10;;;3.73;;
6388;SDS011;3227;42.654;23.360;2023-04-03T01:40:41;8.30;;;4.17;;
6388;SDS011;3227;42.654;23.360;2023-04-03T01:43:08;9.83;;;4.10;;
6388;SDS011;3227;42.654;23.360;2023-04-03T01:45:35;16.37;;;5.17;;
6388;SDS011;3227;42.654;23.360;2023-04-03T01:48:01;15.77;;;6.37;;
6388;SDS011;3227;42.654;23.360;2023-04-03T01:50:30;10.87;;;5.30;;
6388;SDS011;3227;42.654;23.360;2023-04-03T01:52:57;10.77;;;5.37;;
6388;SDS011;3227;42.654;23.360;2023-04-03T01:55:24;10.77;;;5.10;;
6388;SDS011;3227;42.654;23.360;2023-04-03T01:57:51;12.00;;;4.80;;
6388;SDS011;3227;42.654;23.360;2023-04-03T02:00:18;7.93;;;4.33;;
6388;SDS011;3227;42.654;23.360;2023-04-03T02:02:45;8.93;;;4.43;;
6388;SDS011;3227;42.654;23.360;2023-04-03T02:05:11;11.20;;;4.80;;
6388;SDS011;3227;42.654;23.360;2023-04-03T02:07:40;9.87;;;4.40;;
6388;SDS011;3227;42.654;23.360;2023-04-03T02:10:07;10.30;;;4.80;;
6388;SDS011;3227;42.654;23.360;2023-04-03T02:12:34;8.03;;;4.17;;
6388;SDS011;3227;42.654;23.360;2023-04-03T02:15:01;12.20;;;4.10;;
6388;SDS011;3227;42.654;23.360;2023-04-03T02:17:28;10.03;;;4.77;;
6388;SDS011;3227;42.654;23.360;2023-04-03T02:19:54;9.43;;;5.20;;
6388;SDS011;3227;42.654;23.360;2023-04-03T02:22:21;10.77;;;5.50;;
6388;SDS011;3227;42.654;23.360;2023-04-03T02:24:49;13.37;;;7.57;;
6388;SDS011;3227;42.654;23.360;2023-04-03T02:27:16;12.47;;;6.57;;
6388;SDS011;3227;42.654;23.360;2023-04-03T02:29:48;12.73;;;6.03;;
6388;SDS011;3227;42.654;23.360;2023-04-03T02:32:15;16.23;;;6.87;;
6388;SDS011;3227;42.654;23.360;2023-04-03T02:34:42;11.30;;;6.17;;
6388;SDS011;3227;42.654;23.360;2023-04-03T02:37:09;11.93;;;6.30;;
6388;SDS011;3227;42.654;23.360;2023-04-03T02:39:35;13.43;;;5.73;;
6388;SDS011;3227;42.654;23.360;2023-04-03T02:42:04;11.23;;;5.70;;
6388;SDS011;3227;42.654;23.360;2023-04-03T02:44:31;10.07;;;5.80;;
6388;SDS011;3227;42.654;23.360;2023-04-03T02:46:57;11.60;;;5.73;;
6388;SDS011;3227;42.654;23.360;2023-04-03T02:49:24;10.03;;;4.53;;
6388;SDS011;3227;42.654;23.360;2023-04-03T02:51:51;11.57;;;4.93;;
6388;SDS011;3227;42.654;23.360;2023-04-03T02:54:18;10.83;;;5.10;;
6388;SDS011;3227;42.654;23.360;2023-04-03T02:56:44;9.60;;;4.00;;
6388;SDS011;3227;42.654;23.360;2023-04-03T02:59:23;8.57;;;4.20;;
6388;SDS011;3227;42.654;23.360;2023-04-03T03:01:49;10.17;;;4.30;;
6388;SDS011;3227;42.654;23.360;2023-04-03T03:04:16;12.50;;;4.60;;
6388;SDS011;3227;42.654;23.360;2023-04-03T03:06:43;8.83;;;4.57;;
6388;SDS011;3227;42.654;23.360;2023-04-03T03:09:10;11.63;;;4.50;;
6388;SDS011;3227;42.654;23.360;2023-04-03T03:11:38;10.47;;;4.63;;
6388;SDS011;3227;42.654;23.360;2023-04-03T03:14:04;12.07;;;4.60;;
6388;SDS011;3227;42.654;23.360;2023-04-03T03:16:33;9.27;;;4.37;;
6388;SDS011;3227;42.654;23.360;2023-04-03T03:18:59;12.47;;;5.03;;
6388;SDS011;3227;42.654;23.360;2023-04-03T03:21:26;12.97;;;4.93;;
6388;SDS011;3227;42.654;23.360;2023-04-03T03:23:53;10.77;;;4.43;;
6388;SDS011;3227;42.654;23.360;2023-04-03T03:26:19;11.30;;;4.50;;
6388;SDS011;3227;42.654;23.360;2023-04-03T03:28:46;8.07;;;4.33;;
6388;SDS011;3227;42.654;23.360;2023-04-03T03:31:13;8.73;;;4.03;;
6388;SDS011;3227;42.654;23.360;2023-04-03T03:33:41;11.20;;;4.83;;
6388;SDS011;3227;42.654;23.360;2023-04-03T03:36:08;9.77;;;4.63;;
6388;SDS011;3227;42.654;23.360;2023-04-03T03:38:35;14.97;;;5.10;;
6388;SDS011;3227;42.654;23.360;2023-04-03T03:41:02;13.73;;;5.07;;
6388;SDS011;3227;42.654;23.360;2023-04-03T03:43:29;12.00;;;4.40;;
6388;SDS011;3227;42.654;23.360;2023-04-03T03:45:56;20.77;;;5.10;;
6388;SDS011;3227;42.654;23.360;2023-04-03T03:48:22;11.10;;;4.80;;
6388;SDS011;3227;42.654;23.360;2023-04-03T03:50:51;9.67;;;4.97;;
6388;SDS011;3227;42.654;23.360;2023-04-03T03:53:18;10.60;;;4.60;;
6388;SDS011;3227;42.654;23.360;2023-04-03T03:55:45;13.93;;;4.43;;
6388;SDS011;3227;42.654;23.360;2023-04-03T03:58:12;21.87;;;4.70;;
6388;SDS011;3227;42.654;23.360;2023-04-03T04:00:38;11.13;;;4.47;;
6388;SDS011;3227;42.654;23.360;2023-04-03T04:03:05;11.67;;;4.77;;
6388;SDS011;3227;42.654;23.360;2023-04-03T04:05:32;15.70;;;4.40;;
6388;SDS011;3227;42.654;23.360;2023-04-03T04:08:01;14.50;;;5.00;;
6388;SDS011;3227;42.654;23.360;2023-04-03T04:10:27;25.83;;;5.60;;
6388;SDS011;3227;42.654;23.360;2023-04-03T04:12:54;13.30;;;5.07;;
6388;SDS011;3227;42.654;23.360;2023-04-03T04:15:21;21.20;;;7.97;;
6388;SDS011;3227;42.654;23.360;2023-04-03T04:17:48;20.87;;;5.60;;
6388;SDS011;3227;42.654;23.360;2023-04-03T04:20:15;18.83;;;6.40;;
6388;SDS011;3227;42.654;23.360;2023-04-03T04:22:41;16.17;;;5.23;;
6388;SDS011;3227;42.654;23.360;2023-04-03T04:25:10;16.70;;;5.43;;
6388;SDS011;3227;42.654;23.360;2023-04-03T04:27:37;17.30;;;5.90;;
6388;SDS011;3227;42.654;23.360;2023-04-03T04:30:04;20.07;;;5.57;;
6388;SDS011;3227;42.654;23.360;2023-04-03T04:32:32;17.60;;;5.80;;
6388;SDS011;3227;42.654;23.360;2023-04-03T04:34:58;16.37;;;6.33;;
6388;SDS011;3227;42.654;23.360;2023-04-03T04:37:26;17.30;;;5.50;;
6388;SDS011;3227;42.654;23.360;2023-04-03T04:39:52;15.17;;;5.67;;
6388;SDS011;3227;42.654;23.360;2023-04-03T04:42:21;14.57;;;5.47;;
6388;SDS011;3227;42.654;23.360;2023-04-03T04:44:47;28.43;;;6.50;;
6388;SDS011;3227;42.654;23.360;2023-04-03T04:47:14;21.63;;;6.97;;
6388;SDS011;3227;42.654;23.360;2023-04-03T04:49:41;19.43;;;7.67;;
6388;SDS011;3227;42.654;23.360;2023-04-03T04:52:08;23.80;;;5.87;;
6388;SDS011;3227;42.654;23.360;2023-04-03T04:54:34;23.53;;;6.87;;
6388;SDS011;3227;42.654;23.360;2023-04-03T04:57:01;30.33;;;8.10;;
6388;SDS011;3227;42.654;23.360;2023-04-03T04:59:30;40.33;;;8.60;;
6388;SDS011;3227;42.654;23.360;2023-04-03T05:01:57;38.60;;;8.20;;
6388;SDS011;3227;42.654;23.360;2023-04-03T05:04:24;28.70;;;7.70;;
6388;SDS011;3227;42.654;23.360;2023-04-03T05:06:51;28.37;;;7.33;;
6388;SDS011;3227;42.654;23.360;2023-04-03T05:09:17;36.37;;;11.73;;
6388;SDS011;3227;42.654;23.360;2023-04-03T05:11:45;43.57;;;15.33;;
6388;SDS011;3227;42.654;23.360;2023-04-03T05:14:12;46.83;;;17.57;;
6388;SDS011;3227;42.654;23.360;2023-04-03T05:16:40;26.10;;;15.27;;
6388;SDS011;3227;42.654;23.360;2023-04-03T05:19:07;25.60;;;14.30;;
6388;SDS011;3227;42.654;23.360;2023-04-03T05:21:34;27.73;;;14.50;;
6388;SDS011;3227;42.654;23.360;2023-04-03T05:24:01;19.37;;;11.47;;
6388;SDS011;3227;42.654;23.360;2023-04-03T05:26:28;21.87;;;13.63;;
6388;SDS011;3227;42.654;23.360;2023-04-03T05:28:55;27.07;;;14.47;;
6388;SDS011;3227;42.654;23.360;2023-04-03T05:31:22;25.50;;;12.73;;
6388;SDS011;3227;42.654;23.360;2023-04-03T05:33:50;20.13;;;13.27;;
6388;SDS011;3227;42.654;23.360;2023-04-03T05:36:17;23.23;;;11.87;;
6388;SDS011;3227;42.654;23.360;2023-04-03T05:38:44;33.53;;;13.70;;
6388;SDS011;3227;42.654;23.360;2023-04-03T05:41:11;27.90;;;14.60;;
6388;SDS011;3227;42.654;23.360;2023-04-03T05:43:38;28.40;;;12.50;;
6388;SDS011;3227;42.654;23.360;2023-04-03T05:46:08;28.23;;;12.17;;
6388;SDS011;3227;42.654;23.360;2023-04-03T05:48:37;24.40;;;12.30;;
6388;SDS011;3227;42.654;23.360;2023-04-03T05:51:06;29.97;;;11.70;;
6388;SDS011;3227;42.654;23.360;2023-04-03T05:53:34;28.33;;;12.07;;
6388;SDS011;3227;42.654;23.360;2023-04-03T05:56:02;25.13;;;12.43;;
6388;SDS011;3227;42.654;23.360;2023-04-03T05:58:29;22.60;;;12.27;;
6388;SDS011;3227;42.654;23.360;2023-04-03T06:00:55;24.23;;;12.40;;
6388;SDS011;3227;42.654;23.360;2023-04-03T06:03:22;24.57;;;10.80;;
6388;SDS011;3227;42.654;23.360;2023-04-03T06:05:50;33.77;;;10.93;;
6388;SDS011;3227;42.654;23.360;2023-04-03T06:08:18;20.53;;;10.93;;
6388;SDS011;3227;42.654;23.360;2023-04-03T06:10:45;26.67;;;9.83;;
6388;SDS011;3227;42.654;23.360;2023-04-03T06:13:12;24.57;;;9.63;;
6388;SDS011;3227;42.654;23.360;2023-04-03T06:15:40;26.55;;;11.07;;
6388;SDS011;3227;42.654;23.360;2023-04-03T06:18:06;23.77;;;9.73;;
6388;SDS011;3227;42.654;23.360;2023-04-03T06:20:33;19.90;;;10.20;;
6388;SDS011;3227;42.654;23.360;2023-04-03T06:23:00;25.67;;;8.97;;
6388;SDS011;3227;42.654;23.360;2023-04-03T06:25:28;19.63;;;9.10;;
6388;SDS011;3227;42.654;23.360;2023-04-03T06:27:56;25.10;;;9.40;;
6388;SDS011;3227;42.654;23.360;2023-04-03T06:30:23;16.37;;;8.67;;
6388;SDS011;3227;42.654;23.360;2023-04-03T06:32:50;27.77;;;9.80;;
6388;SDS011;3227;42.654;23.360;2023-04-03T06:35:17;17.07;;;9.70;;
6388;SDS011;3227;42.654;23.360;2023-04-03T06:37:44;17.03;;;9.30;;
6388;SDS011;3227;42.654;23.360;2023-04-03T06:40:13;16.20;;;9.32;;
6388;SDS011;3227;42.654;23.360;2023-04-03T06:42:46;19.03;;;9.03;;
6388;SDS011;3227;42.654;23.360;2023-04-03T06:45:13;19.87;;;8.80;;
6388;SDS011;3227;42.654;23.360;2023-04-03T06:47:40;30.27;;;11.03;;
6388;SDS011;3227;42.654;23.360;2023-04-03T06:50:08;29.60;;;10.37;;
6388;SDS011;3227;42.654;23.360;2023-04-03T06:52:36;20.43;;;10.53;;
6388;SDS011;3227;42.654;23.360;2023-04-03T06:55:05;33.73;;;16.23;;
6388;SDS011;3227;42.654;23.360;2023-04-03T06:57:32;33.63;;;19.80;;
6388;SDS011;3227;42.654;23.360;2023-04-03T07:00:00;36.17;;;17.50;;
6388;SDS011;3227;42.654;23.360;2023-04-03T07:02:28;30.63;;;16.00;;
6388;SDS011;3227;42.654;23.360;2023-04-03T07:04:55;32.13;;;14.97;;
6388;SDS011;3227;42.654;23.360;2023-04-03T07:07:21;27.13;;;14.77;;
6388;SDS011;3227;42.654;23.360;2023-04-03T07:09:48;20.43;;;11.77;;
6388;SDS011;3227;42.654;23.360;2023-04-03T07:12:15;25.90;;;10.40;;
6388;SDS011;3227;42.654;23.360;2023-04-03T07:14:42;23.10;;;9.50;;
6388;SDS011;3227;42.654;23.360;2023-04-03T07:17:10;22.55;;;10.27;;
6388;SDS011;3227;42.654;23.360;2023-04-03T07:19:37;22.47;;;10.60;;
6388;SDS011;3227;42.654;23.360;2023-04-03T07:22:03;26.53;;;11.03;;
6388;SDS011;3227;42.654;23.360;2023-04-03T07:24:30;29.00;;;12.40;;
6388;SDS011;3227;42.654;23.360;2023-04-03T07:26:57;25.42;;;11.55;;
6388;SDS011;3227;42.654;23.360;2023-04-03T07:29:24;26.70;;;11.25;;
6388;SDS011;3227;42.654;23.360;2023-04-03T07:31:50;22.70;;;11.45;;
6388;SDS011;3227;42.654;23.360;2023-04-03T07:34:19;23.15;;;11.20;;
6388;SDS011;3227;42.654;23.360;2023-04-03T07:36:45;25.73;;;10.70;;
6388;SDS011;3227;42.654;23.360;2023-04-03T07:39:12;23.03;;;10.73;;
6388;SDS011;3227;42.654;23.360;2023-04-03T07:41:39;16.30;;;9.13;;
6388;SDS011;3227;42.654;23.360;2023-04-03T07:44:06;28.27;;;9.53;;
6388;SDS011;3227;42.654;23.360;2023-04-03T07:46:34;26.37;;;10.57;;
6388;SDS011;3227;42.654;23.360;2023-04-03T07:49:01;28.05;;;11.43;;
6388;SDS011;3227;42.654;23.360;2023-04-03T07:51:29;24.20;;;12.70;;
6388;SDS011;3227;42.654;23.360;2023-04-03T07:53:56;33.33;;;14.77;;
6388;SDS011;3227;42.654;23.360;2023-04-03T07:56:23;30.67;;;15.53;;
6388;SDS011;3227;42.654;23.360;2023-04-03T07:58:51;28.87;;;16.33;;
6388;SDS011;3227;42.654;23.360;2023-04-03T08:01:18;27.27;;;15.83;;
6388;SDS011;3227;42.654;23.360;2023-04-03T08:03:45;30.00;;;18.07;;
6388;SDS011;3227;42.654;23.360;2023-04-03T08:06:12;47.47;;;17.93;;
6388;SDS011;3227;42.654;23.360;2023-04-03T08:08:41;31.17;;;17.30;;
6388;SDS011;3227;42.654;23.360;2023-04-03T08:11:09;32.20;;;17.10;;
6388;SDS011;3227;42.654;23.360;2023-04-03T08:13:36;26.47;;;17.33;;
6388;SDS011;3227;42.654;23.360;2023-04-03T08:16:07;39.33;;;16.83;;
6388;SDS011;3227;42.654;23.360;2023-04-03T08:18:36;28.07;;;16.33;;
6388;SDS011;3227;42.654;23.360;2023-04-03T08:21:07;28.47;;;15.60;;
6388;SDS011;3227;42.654;23.360;2023-04-03T08:23:35;27.77;;;15.47;;
6388;SDS011;3227;42.654;23.360;2023-04-03T08:26:07;36.67;;;16.97;;
6388;SDS011;3227;42.654;23.360;2023-04-03T08:28:35;31.80;;;17.27;;
6388;SDS011;3227;42.654;23.360;2023-04-03T08:31:02;32.90;;;16.37;;
6388;SDS011;3227;42.654;23.360;2023-04-03T08:33:31;29.73;;;16.90;;
6388;SDS011;3227;42.654;23.360;2023-04-03T08:35:58;23.10;;;15.00;;
6388;SDS011;3227;42.654;23.360;2023-04-03T08:38:25;27.27;;;14.87;;
6388;SDS011;3227;42.654;23.360;2023-04-03T08:40:59;27.47;;;15.77;;
6388;SDS011;3227;42.654;23.360;2023-04-03T08:43:33;28.95;;;16.08;;
6388;SDS011;3227;42.654;23.360;2023-04-03T08:46:05;30.70;;;16.30;;
6388;SDS011;3227;42.654;23.360;2023-04-03T08:48:36;28.20;;;14.20;;
6388;SDS011;3227;42.654;23.360;2023-04-03T08:51:09;37.07;;;15.30;;
6388;SDS011;3227;42.654;23.360;2023-04-03T08:53:40;29.43;;;16.27;;
6388;SDS011;3227;42.654;23.360;2023-04-03T08:56:11;30.63;;;15.77;;
6388;SDS011;3227;42.654;23.360;2023-04-03T08:58:46;27.10;;;14.53;;
6388;SDS011;3227;42.654;23.360;2023-04-03T09:01:19;27.00;;;14.67;;
6388;SDS011;3227;42.654;23.360;2023-04-03T09:03:49;26.20;;;15.25;;
6388;SDS011;3227;42.654;23.360;2023-04-03T09:06:17;26.23;;;14.02;;
6388;SDS011;3227;42.654;23.360;2023-04-03T09:08:49;28.33;;;14.57;;
6388;SDS011;3227;42.654;23.360;2023-04-03T09:11:20;26.00;;;12.50;;
6388;SDS011;3227;42.654;23.360;2023-04-03T09:13:54;28.42;;;13.35;;
6388;SDS011;3227;42.654;23.360;2023-04-03T09:16:28;20.90;;;11.50;;
6388;SDS011;3227;42.654;23.360;2023-04-03T09:19:04;30.08;;;13.38;;
6388;SDS011;3227;42.654;23.360;2023-04-03T09:21:41;22.67;;;11.98;;
6388;SDS011;3227;42.654;23.360;2023-04-03T09:24:09;19.27;;;11.32;;
6388;SDS011;3227;42.654;23.360;2023-04-03T09:26:39;17.87;;;10.40;;
6388;SDS011;3227;42.654;23.360;2023-04-03T09:29:13;17.37;;;10.13;;
6388;SDS011;3227;42.654;23.360;2023-04-03T09:31:43;24.33;;;11.87;;
6388;SDS011;3227;42.654;23.360;2023-04-03T09:34:15;29.67;;;11.90;;
6388;SDS011;3227;42.654;23.360;2023-04-03T09:36:48;21.52;;;10.50;;
6388;SDS011;3227;42.654;23.360;2023-04-03T09:39:17;16.43;;;8.63;;
6388;SDS011;3227;42.654;23.360;2023-04-03T09:41:59;15.77;;;7.03;;
6388;SDS011;3227;42.654;23.360;2023-04-03T09:44:29;21.03;;;9.07;;
6388;SDS011;3227;42.654;23.360;2023-04-03T09:46:58;26.93;;;8.93;;
6388;SDS011;3227;42.654;23.360;2023-04-03T09:49:25;13.63;;;7.30;;
6388;SDS011;3227;42.654;23.360;2023-04-03T09:51:52;16.55;;;8.18;;
6388;SDS011;3227;42.654;23.360;2023-04-03T09:57:08;6.33;;;2.93;;
6388;SDS011;3227;42.654;23.360;2023-04-03T09:59:39;8.20;;;3.38;;
6388;SDS011;3227;42.654;23.360;2023-04-03T10:02:21;6.53;;;3.50;;
6388;SDS011;3227;42.654;23.360;2023-04-03T10:04:55;9.83;;;4.60;;
6388;SDS011;3227;42.654;23.360;2023-04-03T10:07:26;11.23;;;5.00;;
6388;SDS011;3227;42.654;23.360;2023-04-03T10:09:55;11.33;;;4.63;;
6388;SDS011;3227;42.654;23.360;2023-04-03T10:12:23;9.97;;;4.87;;
6388;SDS011;3227;42.654;23.360;2023-04-03T10:14:55;8.73;;;5.13;;
6388;SDS011;3227;42.654;23.360;2023-04-03T10:17:24;10.15;;;5.82;;
6388;SDS011;3227;42.654;23.360;2023-04-03T10:20:07;13.30;;;5.20;;
6388;SDS011;3227;42.654;23.360;2023-04-03T10:22:47;11.15;;;5.65;;
6388;SDS011;3227;42.654;23.360;2023-04-03T10:25:24;10.20;;;4.80;;
6388;SDS011;3227;42.654;23.360;2023-04-03T10:28:00;9.10;;;4.82;;
6388;SDS011;3227;42.654;23.360;2023-04-03T10:30:36;11.70;;;4.60;;
6388;SDS011;3227;42.654;23.360;2023-04-03T10:33:17;10.80;;;4.78;;
6388;SDS011;3227;42.654;23.360;2023-04-03T10:35:58;8.50;;;4.80;;
6388;SDS011;3227;42.654;23.360;2023-04-03T10:38:38;12.83;;;5.10;;
6388;SDS011;3227;42.654;23.360;2023-04-03T10:41:16;8.23;;;3.90;;
6388;SDS011;3227;42.654;23.360;2023-04-03T10:43:50;9.93;;;4.27;;
6388;SDS011;3227;42.654;23.360;2023-04-03T10:46:28;9.88;;;4.95;;
6388;SDS011;3227;42.654;23.360;2023-04-03T10:49:05;11.45;;;5.82;;
6388;SDS011;3227;42.654;23.360;2023-04-03T10:51:41;10.03;;;4.13;;
6388;SDS011;3227;42.654;23.360;2023-04-03T10:54:11;11.50;;;4.90;;
6388;SDS011;3227;42.654;23.360;2023-04-03T10:56:44;11.67;;;5.03;;
6388;SDS011;3227;42.654;23.360;2023-04-03T10:59:18;7.17;;;3.57;;
6388;SDS011;3227;42.654;23.360;2023-04-03T11:01:53;10.00;;;4.35;;
6388;SDS011;3227;42.654;23.360;2023-04-03T11:04:22;9.40;;;3.80;;
6388;SDS011;3227;42.654;23.360;2023-04-03T11:06:55;5.23;;;3.20;;
6388;SDS011;3227;42.654;23.360;2023-04-03T11:09:27;6.73;;;3.47;;
6388;SDS011;3227;42.654;23.360;2023-04-03T11:11:57;5.83;;;3.27;;
6388;SDS011;3227;42.654;23.360;2023-04-03T11:14:31;6.17;;;3.40;;
6388;SDS011;3227;42.654;23.360;2023-04-03T11:17:04;6.77;;;3.43;;
6388;SDS011;3227;42.654;23.360;2023-04-03T11:19:39;7.82;;;3.50;;
6388;SDS011;3227;42.654;23.360;2023-04-03T11:22:13;7.13;;;3.80;;
6388;SDS011;3227;42.654;23.360;2023-04-03T11:24:51;8.30;;;3.70;;
6388;SDS011;3227;42.654;23.360;2023-04-03T11:27:25;9.03;;;3.93;;
6388;SDS011;3227;42.654;23.360;2023-04-03T11:29:55;9.60;;;4.20;;
6388;SDS011;3227;42.654;23.360;2023-04-03T11:32:33;6.93;;;3.90;;
6388;SDS011;3227;42.654;23.360;2023-04-03T11:35:26;7.63;;;3.87;;
6388;SDS011;3227;42.654;23.360;2023-04-03T11:37:54;7.07;;;3.70;;
6388;SDS011;3227;42.654;23.360;2023-04-03T11:40:24;6.57;;;3.30;;
6388;SDS011;3227;42.654;23.360;2023-04-03T11:42:55;7.97;;;3.40;;
6388;SDS011;3227;42.654;23.360;2023-04-03T11:45:33;6.17;;;3.47;;
6388;SDS011;3227;42.654;23.360;2023-04-03T11:48:05;7.53;;;4.00;;
6388;SDS011;3227;42.654;23.360;2023-04-03T11:50:53;6.53;;;3.60;;
6388;SDS011;3227;42.654;23.360;2023-04-03T11:53:31;7.45;;;3.97;;
6388;SDS011;3227;42.654;23.360;2023-04-03T11:56:04;8.25;;;4.22;;
6388;SDS011;3227;42.654;23.360;2023-04-03T11:58:52;7.27;;;3.70;;
6388;SDS011;3227;42.654;23.360;2023-04-03T12:01:51;8.52;;;4.50;;
6388;SDS011;3227;42.654;23.360;2023-04-03T12:04:19;7.43;;;3.67;;
6388;SDS011;3227;42.654;23.360;2023-04-03T12:12:32;8.25;;;4.63;;
6388;SDS011;3227;42.654;23.360;2023-04-03T12:17:51;9.87;;;4.30;;
6388;SDS011;3227;42.654;23.360;2023-04-03T12:23:29;7.93;;;4.38;;
6388;SDS011;3227;42.654;23.360;2023-04-03T12:26:02;10.18;;;4.82;;
6388;SDS011;3227;42.654;23.360;2023-04-03T12:28:46;6.65;;;3.65;;
6388;SDS011;3227;42.654;23.360;2023-04-03T12:31:19;7.35;;;3.90;;
6388;SDS011;3227;42.654;23.360;2023-04-03T12:34:01;7.17;;;4.00;;
6388;SDS011;3227;42.654;23.360;2023-04-03T12:36:42;8.02;;;3.70;;
6388;SDS011;3227;42.654;23.360;2023-04-03T12:42:29;6.67;;;3.57;;
6388;SDS011;3227;42.654;23.360;2023-04-03T12:45:08;7.13;;;4.00;;
6388;SDS011;3227;42.654;23.360;2023-04-03T12:47:44;8.60;;;4.33;;
6388;SDS011;3227;42.654;23.360;2023-04-03T12:50:18;8.00;;;4.20;;
6388;SDS011;3227;42.654;23.360;2023-04-03T12:52:51;6.97;;;4.33;;
6388;SDS011;3227;42.654;23.360;2023-04-03T12:55:23;7.15;;;4.10;;
6388;SDS011;3227;42.654;23.360;2023-04-03T12:57:50;11.52;;;5.03;;
6388;SDS011;3227;42.654;23.360;2023-04-03T13:00:22;8.53;;;4.50;;
6388;SDS011;3227;42.654;23.360;2023-04-03T13:02:59;9.17;;;4.23;;
6388;SDS011;3227;42.654;23.360;2023-04-03T13:05:26;7.77;;;4.40;;
6388;SDS011;3227;42.654;23.360;2023-04-03T13:07:56;10.20;;;4.85;;
6388;SDS011;3227;42.654;23.360;2023-04-03T13:10:25;7.33;;;4.77;;
6388;SDS011;3227;42.654;23.360;2023-04-03T13:12:53;12.43;;;4.43;;
6388;SDS011;3227;42.654;23.360;2023-04-03T13:15:22;7.07;;;4.70;;
6388;SDS011;3227;42.654;23.360;2023-04-03T13:17:51;10.47;;;4.67;;
6388;SDS011;3227;42.654;23.360;2023-04-03T13:20:22;10.70;;;4.50;;
6388;SDS011;3227;42.654;23.360;2023-04-03T13:22:53;10.57;;;4.60;;
6388;SDS011;3227;42.654;23.360;2023-04-03T13:25:24;11.80;;;4.87;;
6388;SDS011;3227;42.654;23.360;2023-04-03T13:27:53;8.93;;;4.80;;
6388;SDS011;3227;42.654;23.360;2023-04-03T13:30:23;8.60;;;4.70;;
6388;SDS011;3227;42.654;23.360;2023-04-03T13:32:54;11.87;;;5.07;;
6388;SDS011;3227;42.654;23.360;2023-04-03T13:35:31;10.13;;;5.00;;
6388;SDS011;3227;42.654;23.360;2023-04-03T13:38:02;9.87;;;5.67;;
6388;SDS011;3227;42.654;23.360;2023-04-03T13:40:32;11.07;;;5.55;;
6388;SDS011;3227;42.654;23.360;2023-04-03T13:43:00;9.18;;;5.38;;
6388;SDS011;3227;42.654;23.360;2023-04-03T13:45:29;8.50;;;5.30;;
6388;SDS011;3227;42.654;23.360;2023-04-03T13:50:53;9.50;;;5.80;;
6388;SDS011;3227;42.654;23.360;2023-04-03T13:53:22;8.47;;;5.67;;
6388;SDS011;3227;42.654;23.360;2023-04-03T13:55:55;12.70;;;7.70;;
6388;SDS011;3227;42.654;23.360;2023-04-03T13:58:24;9.70;;;5.40;;
6388;SDS011;3227;42.654;23.360;2023-04-03T14:00:53;8.57;;;4.90;;
6388;SDS011;3227;42.654;23.360;2023-04-03T14:03:23;9.48;;;5.45;;
6388;SDS011;3227;42.654;23.360;2023-04-03T14:05:53;8.80;;;4.73;;
6388;SDS011;3227;42.654;23.360;2023-04-03T14:08:20;10.82;;;6.60;;
6388;SDS011;3227;42.654;23.360;2023-04-03T14:10:48;8.77;;;5.43;;
6388;SDS011;3227;42.654;23.360;2023-04-03T14:13:16;13.77;;;7.50;;
6388;SDS011;3227;42.654;23.360;2023-04-03T14:15:45;24.00;;;11.50;;
6388;SDS011;3227;42.654;23.360;2023-04-03T14:18:14;15.47;;;8.80;;
6388;SDS011;3227;42.654;23.360;2023-04-03T14:20:47;16.60;;;9.10;;
6388;SDS011;3227;42.654;23.360;2023-04-03T14:23:16;12.17;;;7.47;;
6388;SDS011;3227;42.654;23.360;2023-04-03T14:25:42;8.97;;;5.20;;
6388;SDS011;3227;42.654;23.360;2023-04-03T14:28:14;10.48;;;6.50;;
6388;SDS011;3227;42.654;23.360;2023-04-03T14:30:43;11.33;;;6.20;;
6388;SDS011;3227;42.654;23.360;2023-04-03T14:33:13;12.20;;;7.63;;
6388;SDS011;3227;42.654;23.360;2023-04-03T14:35:41;11.90;;;6.60;;
6388;SDS011;3227;42.654;23.360;2023-04-03T14:38:13;13.63;;;6.00;;
6388;SDS011;3227;42.654;23.360;2023-04-03T14:40:49;11.30;;;6.55;;
6388;SDS011;3227;42.654;23.360;2023-04-03T14:43:16;9.50;;;6.03;;
6388;SDS011;3227;42.654;23.360;2023-04-03T14:45:45;8.67;;;5.40;;
6388;SDS011;3227;42.654;23.360;2023-04-03T14:48:15;9.23;;;6.07;;
6388;SDS011;3227;42.654;23.360;2023-04-03T14:50:44;13.07;;;7.77;;
6388;SDS011;3227;42.654;23.360;2023-04-03T14:53:12;10.07;;;5.60;;
6388;SDS011;3227;42.654;23.360;2023-04-03T14:55:41;15.23;;;7.70;;
6388;SDS011;3227;42.654;23.360;2023-04-03T14:58:11;8.17;;;5.20;;
6388;SDS011;3227;42.654;23.360;2023-04-03T15:00:39;7.60;;;4.77;;
6388;SDS011;3227;42.654;23.360;2023-04-03T15:03:09;9.97;;;4.70;;
6388;SDS011;3227;42.654;23.360;2023-04-03T15:05:39;8.03;;;4.97;;
6388;SDS011;3227;42.654;23.360;2023-04-03T15:08:08;7.90;;;4.73;;
6388;SDS011;3227;42.654;23.360;2023-04-03T15:10:45;7.47;;;4.63;;
6388;SDS011;3227;42.654;23.360;2023-04-03T15:13:12;9.43;;;5.13;;
6388;SDS011;3227;42.654;23.360;2023-04-03T15:15:39;8.97;;;4.53;;
6388;SDS011;3227;42.654;23.360;2023-04-03T15:18:09;7.30;;;4.27;;
6388;SDS011;3227;42.654;23.360;2023-04-03T15:20:40;6.37;;;3.70;;
6388;SDS011;3227;42.654;23.360;2023-04-03T15:23:08;7.43;;;4.37;;
6388;SDS011;3227;42.654;23.360;2023-04-03T15:25:36;6.43;;;3.77;;